Time;durP1;ratioP1;P1;durP2;ratioP2;P2;SDS_P1;SDS_P2;PMS_P1;PMS_P2;Temp;Humidity;BMP_temperature;BMP_pressure;BME280_temperature;BME280_humidity;BME280_pressure;Samples;Min_cycle;Max_cycle;Signal;HPM_P1;HPM_P2
2023/03/16 00:00:47;;;;;;;19.48;6.07;;;;;;;4.58;77.72;101605.28;5044905;28;20029;-74
2023/03/16 00:03:18;;;;;;;16.67;6.00;;;;;;;4.55;77.93;101614.28;5060754;28;20032;-74
2023/03/16 00:05:45;;;;;;;21.00;7.05;;;;;;;4.54;77.77;101604.53;5060200;28;20042;-74
2023/03/16 00:08:11;;;;;;;17.58;6.43;;;;;;;4.55;77.74;101603.63;5061068;28;20028;-74
2023/03/16 00:10:36;;;;;;;18.65;6.40;;;;;;;4.54;77.98;101601.88;5053172;28;20029;-74
2023/03/16 00:13:02;;;;;;;18.85;6.88;;;;;;;4.55;78.33;101598.31;5059729;28;20032;-74
2023/03/16 00:15:28;;;;;;;17.02;5.97;;;;;;;4.57;78.47;101600.03;5056977;28;20032;-74
2023/03/16 00:17:53;;;;;;;18.42;6.30;;;;;;;4.57;78.46;101602.69;5053640;28;20426;-74
2023/03/16 00:20:19;;;;;;;22.13;7.70;;;;;;;4.57;78.42;101594.69;5060047;28;20078;-74
2023/03/16 00:22:44;;;;;;;18.25;5.80;;;;;;;4.58;78.33;101591.13;5059222;28;20079;-74
2023/03/16 00:25:13;;;;;;;17.77;6.00;;;;;;;4.57;78.16;101592.03;5053347;28;20055;-74
2023/03/16 00:27:38;;;;;;;15.45;5.88;;;;;;;4.58;78.98;101585.78;5055285;28;20391;-74
2023/03/16 00:30:04;;;;;;;18.33;6.78;;;;;;;4.57;78.56;101584.03;5062668;28;20033;-74
2023/03/16 00:32:32;;;;;;;17.33;6.65;;;;;;;4.58;78.92;101583.13;5056144;28;20020;-74
2023/03/16 00:34:58;;;;;;;18.98;6.90;;;;;;;4.59;79.02;101579.56;5053114;28;20499;-74
2023/03/16 00:37:25;;;;;;;17.85;5.93;;;;;;;4.60;79.03;101575.94;5061425;28;20402;-74
2023/03/16 00:39:54;;;;;;;17.48;6.78;;;;;;;4.62;78.99;101576.78;5061892;28;20033;-74
2023/03/16 00:42:26;;;;;;;18.00;6.43;;;;;;;4.60;78.47;101578.59;5046833;28;20033;-74
2023/03/16 00:44:56;;;;;;;16.75;6.03;;;;;;;4.61;79.31;101569.69;5063254;28;20750;-74
2023/03/16 00:47:21;;;;;;;;;;;;;;;4.69;78.54;101575.63;5059698;28;20058;-74
2023/03/16 00:49:46;;;;;;;21.25;6.82;;;;;;;4.64;79.19;101572.25;5057437;28;20310;-73
2023/03/16 00:52:15;;;;;;;16.85;6.25;;;;;;;4.61;78.97;101564.38;5047162;28;20472;-74
2023/03/16 00:54:45;;;;;;;19.30;6.30;;;;;;;4.61;79.61;101567.03;5049557;28;20440;-74
2023/03/16 00:57:13;;;;;;;17.08;6.00;;;;;;;4.61;79.59;101559.06;5041473;28;20028;-74
2023/03/16 00:59:41;;;;;;;17.52;6.40;;;;;;;4.63;79.53;101559.88;5055121;28;20039;-74
2023/03/16 01:02:09;;;;;;;20.48;6.47;;;;;;;4.62;79.76;101561.66;5055707;28;20032;-74
2023/03/16 01:04:35;;;;;;;17.17;6.05;;;;;;;4.64;79.65;101548.28;5051612;28;20033;-74
2023/03/16 01:07:02;;;;;;;20.50;6.82;;;;;;;4.62;79.57;101540.34;5054393;28;20556;-74
2023/03/16 01:09:28;;;;;;;19.42;6.90;;;;;;;4.62;79.41;101539.50;5050943;28;20096;-74
2023/03/16 01:11:53;;;;;;;16.92;5.90;;;;;;;4.64;79.32;101537.63;5049294;28;20457;-74
2023/03/16 01:14:19;;;;;;;17.70;6.80;;;;;;;4.63;79.74;101533.25;5050717;28;20020;-74
2023/03/16 01:16:45;;;;;;;18.88;6.13;;;;;;;4.63;80.36;101527.94;5043434;28;20025;-74
2023/03/16 01:19:13;;;;;;;15.05;5.68;;;;;;;4.65;79.52;101526.06;5039292;28;20523;-74
2023/03/16 01:21:41;;;;;;;17.70;6.20;;;;;;;4.63;79.66;101515.47;5043028;28;20025;-74
2023/03/16 01:24:08;;;;;;;21.10;7.15;;;;;;;4.63;79.83;101518.16;5042737;28;20087;-74
2023/03/16 01:26:34;;;;;;;18.92;6.70;;;;;;;4.62;79.97;101511.06;5052703;28;20241;-74
2023/03/16 01:28:59;;;;;;;19.73;6.72;;;;;;;4.63;80.22;101503.97;5040073;28;20389;-74
2023/03/16 01:31:24;;;;;;;18.90;6.57;;;;;;;4.65;79.68;101502.09;5064322;28;20040;-74
2023/03/16 01:33:51;;;;;;;15.10;5.75;;;;;;;4.67;80.11;101495.81;5044197;28;20028;-74
2023/03/16 01:36:17;;;;;;;19.13;6.65;;;;;;;4.66;79.90;101499.38;5041652;28;20075;-74
2023/03/16 01:38:43;;;;;;;17.65;5.82;;;;;;;4.69;80.08;101498.41;5068989;28;20418;-74
2023/03/16 01:41:08;;;;;;;17.75;6.63;;;;;;;4.68;80.49;101502.00;5060692;28;20076;-74
2023/03/16 01:43:36;;;;;;;19.52;6.47;;;;;;;4.67;79.93;101486.94;5053553;28;20025;-74
2023/03/16 01:46:04;;;;;;;17.95;5.95;;;;;;;4.68;79.90;101499.31;5042266;28;20059;-74
2023/03/16 01:48:37;;;;;;;19.48;6.40;;;;;;;4.67;80.65;101501.13;5041779;28;20024;-74
2023/03/16 01:51:08;;;;;;;19.48;6.45;;;;;;;4.66;80.25;101491.41;5043161;28;20021;-74
2023/03/16 01:53:34;;;;;;;15.80;5.45;;;;;;;4.68;80.49;101494.00;5049554;28;20522;-74
2023/03/16 01:56:04;;;;;;;15.77;5.72;;;;;;;4.69;80.88;101487.75;5046822;28;20017;-74
2023/03/16 01:58:30;;;;;;;15.68;5.65;;;;;;;4.70;80.17;101494.78;5037003;28;20016;-74
2023/03/16 02:00:57;;;;;;;17.75;5.78;;;;;;;4.69;80.69;101490.41;5053175;28;20029;-73
2023/03/16 02:03:25;;;;;;;16.10;6.22;;;;;;;4.70;81.03;101489.47;5041490;28;20024;-74
2023/03/16 02:05:59;;;;;;;18.38;6.07;;;;;;;4.71;80.56;101486.78;5057407;28;20106;-74
2023/03/16 02:08:26;;;;;;;18.35;6.15;;;;;;;4.73;80.78;101484.06;5049974;28;20033;-74
2023/03/16 02:10:54;;;;;;;19.23;6.00;;;;;;;4.74;81.00;101480.44;5044606;28;20543;-74
2023/03/16 02:13:22;;;;;;;17.45;6.18;;;;;;;4.76;80.28;101477.72;5041414;28;20025;-74
2023/03/16 02:15:47;;;;;;;17.08;6.03;;;;;;;4.76;81.48;101475.06;5054747;28;20035;-74
2023/03/16 02:18:13;;;;;;;16.67;5.85;;;;;;;4.77;83.07;101480.31;5054390;28;20049;-74
2023/03/16 02:21:08;;;;;;;20.00;5.93;;;;;;;4.76;82.40;101473.28;5050713;28;20035;-74
2023/03/16 02:23:33;;;;;;;19.73;6.30;;;;;;;4.77;84.13;101475.00;5048258;28;20048;-74
2023/03/16 02:26:21;;;;;;;17.73;6.55;;;;;;;4.77;83.27;101475.00;5057965;28;20074;-74
2023/03/16 02:28:53;;;;;;;16.85;5.75;;;;;;;4.76;83.47;101467.06;5045428;28;20023;-74
2023/03/16 02:31:21;;;;;;;16.45;5.80;;;;;;;4.73;83.08;101466.28;5044447;28;20391;-74
2023/03/16 02:33:49;;;;;;;18.15;5.78;;;;;;;4.75;83.38;101466.22;5040264;28;20048;-74
2023/03/16 02:36:16;;;;;;;18.08;5.63;;;;;;;4.76;84.75;101469.72;5043017;28;20032;-74
2023/03/16 02:38:42;;;;;;;16.25;5.35;;;;;;;4.74;84.65;101461.81;5055547;28;20051;-73
2023/03/16 02:41:17;;;;;;;17.63;5.88;;;;;;;4.75;85.58;101466.22;5051247;28;20049;-74
2023/03/16 02:43:51;;;;;;;17.23;5.63;;;;;;;4.74;85.39;101467.13;5054178;28;20511;-74
2023/03/16 02:46:18;;;;;;;17.45;5.70;;;;;;;4.74;86.03;101467.13;5051758;28;20027;-74
2023/03/16 02:48:44;;;;;;;16.40;6.05;;;;;;;4.72;85.28;101456.53;5049995;28;20025;-74
2023/03/16 02:51:10;;;;;;;15.00;5.72;;;;;;;4.72;86.09;101456.53;5042831;28;20418;-74
2023/03/16 02:53:35;;;;;;;18.58;6.47;;;;;;;4.71;85.79;101446.84;5045576;28;20063;-74
2023/03/16 02:56:01;;;;;;;18.65;5.65;;;;;;;4.69;85.79;101448.69;5040894;28;20120;-74
2023/03/16 02:58:27;;;;;;;22.20;6.32;;;;;;;4.69;86.49;101447.81;5051106;28;20025;-74
2023/03/16 03:00:52;;;;;;;17.00;6.05;;;;;;;4.70;86.74;101446.88;5043532;28;20036;-74
2023/03/16 03:03:18;;;;;;;16.00;5.93;;;;;;;4.69;85.60;101450.47;5053691;28;20508;-74
2023/03/16 03:05:43;;;;;;;17.70;6.05;;;;;;;4.69;85.66;101443.34;5059824;28;20120;-74
2023/03/16 03:08:08;;;;;;;18.15;6.15;;;;;;;4.70;86.28;101442.44;5059207;28;20396;-74
2023/03/16 03:10:34;;;;;;;18.02;6.32;;;;;;;4.70;86.06;101439.78;5056523;28;20415;-74
2023/03/16 03:12:59;;;;;;;18.45;5.82;;;;;;;4.71;87.00;101437.97;5046210;28;20033;-74
2023/03/16 03:15:24;;;;;;;20.55;6.38;;;;;;;4.71;85.80;101443.28;5060945;28;20108;-74
2023/03/16 03:17:50;;;;;;;16.85;5.25;;;;;;;4.72;85.88;101445.03;5058635;28;20070;-74
2023/03/16 03:20:16;;;;;;;16.58;5.35;;;;;;;4.72;85.34;101443.22;5059125;28;20021;-74
2023/03/16 03:22:44;;;;;;;17.02;5.68;;;;;;;4.73;84.66;101442.31;5060464;28;20032;-74
2023/03/16 03:25:09;;;;;;;19.13;6.05;;;;;;;4.71;86.24;101436.19;5053487;28;20028;-74
2023/03/16 03:27:35;;;;;;;16.13;5.47;;;;;;;4.71;85.10;101433.53;5055188;28;20357;-74
2023/03/16 03:30:00;;;;;;;17.30;5.70;;;;;;;4.70;86.01;101433.56;5056764;28;20085;-74
2023/03/16 03:32:25;;;;;;;19.33;6.22;;;;;;;4.69;85.87;101432.69;5049438;28;20029;-74
2023/03/16 03:34:51;;;;;;;18.10;5.38;;;;;;;4.69;86.19;101434.50;5040788;28;20043;-74
2023/03/16 03:37:17;;;;;;;20.00;6.35;;;;;;;4.68;85.82;101435.44;5045720;28;20390;-74
2023/03/16 03:39:44;;;;;;;18.60;5.60;;;;;;;4.67;84.41;101431.00;5062924;28;20542;-74
2023/03/16 03:42:10;;;;;;;16.58;5.20;;;;;;;4.66;85.44;101424.84;5056746;28;20060;-74
2023/03/16 03:44:35;;;;;;;18.20;5.50;;;;;;;4.69;85.28;101424.72;5051539;28;20080;-74
2023/03/16 03:47:01;;;;;;;15.85;5.65;;;;;;;4.68;86.01;101428.28;5057023;28;20519;-74
2023/03/16 03:49:27;;;;;;;19.25;5.75;;;;;;;4.67;85.17;101434.56;5059492;28;20039;-74
2023/03/16 03:51:53;;;;;;;15.48;5.07;;;;;;;4.69;85.70;101431.84;5048551;28;20439;-74
2023/03/16 03:54:18;;;;;;;17.33;5.55;;;;;;;4.70;85.90;101433.56;5044030;28;20029;-74
2023/03/16 03:56:44;;;;;;;15.73;5.00;;;;;;;4.70;85.02;101430.91;5049215;28;20489;-74
2023/03/16 03:59:09;;;;;;;19.60;6.03;;;;;;;4.69;85.64;101418.53;5056863;28;20028;-74
2023/03/16 04:01:35;;;;;;;19.90;5.80;;;;;;;4.69;86.05;101416.72;5048223;28;20021;-74
2023/03/16 04:04:00;;;;;;;16.17;5.40;;;;;;;4.69;85.15;101418.53;5056638;28;20071;-74
2023/03/16 04:06:26;;;;;;;18.42;4.97;;;;;;;4.69;85.13;101410.53;5063803;28;20021;-74
2023/03/16 04:08:53;;;;;;;20.05;5.53;;;;;;;4.68;85.58;101406.13;5052691;28;20020;-74
2023/03/16 04:11:19;;;;;;;15.27;5.13;;;;;;;4.66;85.35;101395.56;5041247;28;20136;-74
2023/03/16 04:13:44;;;;;;;15.40;4.85;;;;;;;4.69;84.81;101399.88;5041397;28;20090;-74
2023/03/16 04:16:09;;;;;;;14.43;4.80;;;;;;;4.70;85.08;101396.28;5054443;28;20025;-74
2023/03/16 04:18:38;;;;;;;16.02;5.00;;;;;;;4.67;85.74;101394.63;5054967;28;20044;-74
2023/03/16 04:21:05;;;;;;;15.95;4.95;;;;;;;4.67;85.07;101404.38;5044017;28;20043;-74
2023/03/16 04:23:32;;;;;;;15.25;4.90;;;;;;;4.68;85.32;101406.13;5054895;28;20021;-74
2023/03/16 04:25:58;;;;;;;14.45;4.88;;;;;;;4.68;85.32;101399.00;5059164;28;20377;-74
2023/03/16 04:28:25;;;;;;;15.95;5.18;;;;;;;4.69;86.24;101397.22;5058144;28;20330;-74
2023/03/16 04:30:53;;;;;;;18.00;5.32;;;;;;;4.70;85.16;101398.94;5057297;28;20115;-74
2023/03/16 04:33:20;;;;;;;15.25;4.63;;;;;;;4.71;84.86;101400.69;5036512;28;20013;-74
2023/03/16 04:35:46;;;;;;;18.42;5.55;;;;;;;4.71;84.42;101393.59;5060803;28;20029;-74
2023/03/16 04:38:11;;;;;;;18.77;5.10;;;;;;;4.74;85.70;101395.22;5047642;28;20354;-74
2023/03/16 04:40:37;;;;;;;14.65;4.57;;;;;;;4.73;84.22;101398.84;5057700;28;20389;-74
2023/03/16 04:43:02;;;;;;;16.08;4.55;;;;;;;4.76;85.45;101398.72;5045430;28;20369;-74
2023/03/16 04:45:28;;;;;;;14.30;4.95;;;;;;;4.77;84.86;101387.13;5052961;28;20138;-74
2023/03/16 04:47:53;;;;;;;17.13;5.60;;;;;;;4.78;85.23;101382.69;5055458;28;20111;-74
2023/03/16 04:50:18;;;;;;;13.50;3.83;;;;;;;4.76;85.25;101382.75;5042133;28;20037;-74
2023/03/16 04:52:44;;;;;;;13.85;4.40;;;;;;;4.77;86.34;101387.13;5049374;28;20040;-74
2023/03/16 04:55:09;;;;;;;12.57;4.32;;;;;;;4.79;86.58;101393.28;5055903;28;20110;-74
2023/03/16 04:57:34;;;;;;;13.23;4.57;;;;;;;4.80;85.73;101394.13;5051705;28;20028;-74
2023/03/16 05:00:00;;;;;;;14.10;4.63;;;;;;;4.79;86.68;101385.28;5048122;28;20032;-74
2023/03/16 05:02:25;;;;;;;10.95;4.10;;;;;;;4.80;86.85;101381.69;5049078;28;20381;-74
2023/03/16 05:04:51;;;;;;;15.25;4.68;;;;;;;4.81;87.25;101379.88;5054495;28;20064;-74
2023/03/16 05:07:16;;;;;;;20.80;5.20;;;;;;;4.81;87.36;101383.41;5054580;28;20039;-74
2023/03/16 05:09:42;;;;;;;15.60;4.65;;;;;;;4.81;87.44;101378.09;5046613;28;20117;-74
2023/03/16 05:12:08;;;;;;;15.45;4.95;;;;;;;4.80;87.35;101376.38;5044925;28;20029;-74
2023/03/16 05:14:35;;;;;;;12.00;4.50;;;;;;;4.81;87.35;101372.75;5051412;28;20029;-74
2023/03/16 05:17:02;;;;;;;15.45;4.70;;;;;;;4.82;87.79;101365.66;5053111;28;20068;-74
2023/03/16 05:19:28;;;;;;;16.13;5.25;;;;;;;4.81;89.07;101369.25;5059051;28;20053;-74
2023/03/16 05:21:55;;;;;;;13.75;4.50;;;;;;;4.81;88.68;101370.09;5042768;28;20030;-74
2023/03/16 05:24:22;;;;;;;16.55;4.10;;;;;;;4.82;88.27;101369.16;5062719;28;20032;-74
2023/03/16 05:26:47;;;;;;;14.88;4.75;;;;;;;4.81;87.74;101367.44;5059164;28;20131;-74
2023/03/16 05:29:12;;;;;;;16.55;4.70;;;;;;;4.82;88.62;101361.19;5047245;28;20033;-74
2023/03/16 05:31:38;;;;;;;12.43;4.05;;;;;;;4.82;88.04;101363.84;5062004;28;20156;-74
2023/03/16 05:34:03;;;;;;;14.18;4.45;;;;;;;4.83;87.98;101362.03;5048521;28;20562;-74
2023/03/16 05:36:28;;;;;;;14.60;4.65;;;;;;;4.82;87.70;101355.00;5045560;28;20021;-74
2023/03/16 05:38:53;;;;;;;13.18;4.35;;;;;;;4.83;88.06;101357.59;5056289;28;20036;-74
2023/03/16 05:41:20;;;;;;;12.38;4.15;;;;;;;4.85;88.75;101353.06;5043903;28;20346;-74
2023/03/16 05:43:45;;;;;;;11.52;4.00;;;;;;;4.85;89.15;101350.41;5038907;28;20028;-74
2023/03/16 05:46:11;;;;;;;18.05;5.07;;;;;;;4.85;89.08;101347.75;5053869;28;20039;-74
2023/03/16 05:48:36;;;;;;;13.02;4.50;;;;;;;4.87;87.70;101339.69;5057834;28;20033;-74
2023/03/16 05:51:04;;;;;;;15.35;4.38;;;;;;;4.88;87.63;101338.75;5047770;28;20032;-74
2023/03/16 05:53:30;;;;;;;14.73;4.90;;;;;;;4.87;86.84;101334.34;5056089;28;20041;-74
2023/03/16 05:55:56;;;;;;;14.23;4.20;;;;;;;4.87;87.87;101337.00;5051629;28;20039;-74
2023/03/16 05:58:21;;;;;;;13.80;4.15;;;;;;;4.87;87.70;101332.53;5046575;28;20083;-74
2023/03/16 06:00:46;;;;;;;16.05;4.75;;;;;;;4.88;88.06;101336.09;5038073;28;20144;-73
2023/03/16 06:03:11;;;;;;;15.75;4.55;;;;;;;4.88;86.99;101338.75;5054045;28;20104;-73
2023/03/16 06:05:37;;;;;;;17.20;4.57;;;;;;;4.88;88.10;101339.63;5049437;28;20498;-74
2023/03/16 06:08:02;;;;;;;18.13;4.53;;;;;;;4.90;87.52;101340.44;5052247;28;20035;-74
2023/03/16 06:10:28;;;;;;;13.38;4.30;;;;;;;4.90;86.81;101336.88;5053913;28;20127;-74
2023/03/16 06:12:53;;;;;;;19.38;6.00;;;;;;;4.93;86.95;101330.56;5043614;28;20075;-73
2023/03/16 06:15:18;;;;;;;15.93;5.25;;;;;;;4.93;86.36;101338.56;5058759;28;20097;-74
2023/03/16 06:17:44;;;;;;;17.73;5.80;;;;;;;4.94;86.01;101337.63;5044957;28;20040;-74
2023/03/16 06:20:12;;;;;;;15.90;4.97;;;;;;;4.96;86.10;101338.44;5049885;28;20037;-74
2023/03/16 06:22:38;;;;;;;15.18;5.22;;;;;;;4.96;85.49;101347.28;5048419;28;20037;-74
2023/03/16 06:25:04;;;;;;;16.02;4.43;;;;;;;4.98;85.71;101332.13;5037259;28;20048;-74
2023/03/16 06:27:29;;;;;;;15.57;5.18;;;;;;;5.01;85.80;101337.31;5057157;28;20028;-74
2023/03/16 06:29:55;;;;;;;14.45;4.47;;;;;;;5.03;86.51;101332.78;5053103;28;20063;-74
2023/03/16 06:32:20;;;;;;;17.63;5.68;;;;;;;5.06;86.82;101337.09;5038570;28;20033;-74
2023/03/16 06:34:46;;;;;;;18.50;5.25;;;;;;;5.08;87.71;101337.91;5041699;28;20061;-74
2023/03/16 06:37:12;;;;;;;16.63;4.60;;;;;;;5.07;86.37;101323.72;5050353;28;20029;-74
2023/03/16 06:39:38;;;;;;;20.10;5.80;;;;;;;5.06;86.78;101321.13;5045203;28;20029;-74
2023/03/16 06:42:04;;;;;;;15.57;5.25;;;;;;;5.08;87.19;101319.25;5052692;28;20036;-74
2023/03/16 06:44:30;;;;;;;18.50;5.65;;;;;;;5.10;86.84;101316.56;5056649;28;20064;-74
2023/03/16 06:46:55;;;;;;;12.73;4.22;;;;;;;5.08;87.85;101308.59;5052244;28;20103;-74
2023/03/16 06:49:21;;;;;;;17.85;4.80;;;;;;;5.12;87.77;101325.31;5056412;28;20024;-74
2023/03/16 06:51:46;;;;;;;14.40;4.70;;;;;;;5.13;88.14;101313.75;5046648;28;20021;-74
2023/03/16 06:54:11;;;;;;;14.80;4.40;;;;;;;5.13;87.09;101319.94;5050382;28;20036;-74
2023/03/16 06:56:37;;;;;;;12.90;4.25;;;;;;;5.16;87.83;101327.78;5045209;28;20021;-74
2023/03/16 06:59:02;;;;;;;14.90;4.50;;;;;;;5.17;86.21;101321.53;5035196;28;20037;-74
2023/03/16 07:01:30;;;;;;;13.25;4.13;;;;;;;5.19;86.60;101325.00;5035607;28;20033;-74
2023/03/16 07:03:55;;;;;;;11.68;3.90;;;;;;;5.21;86.54;101322.25;5044736;28;20384;-74
2023/03/16 07:06:36;;;;;;;12.55;3.88;;;;;;;5.24;86.12;101323.00;5054383;28;20033;-74
2023/03/16 07:09:11;;;;;;;9.85;3.47;;;;;;;5.25;85.89;101323.88;5050655;28;20060;-74
2023/03/16 07:11:37;;;;;;;13.52;4.35;;;;;;;5.28;85.97;101314.88;5046322;28;20401;-74
2023/03/16 07:14:02;;;;;;;12.68;4.43;;;;;;;5.30;86.12;101311.22;5054641;28;20029;-74
2023/03/16 07:16:31;;;;;;;18.15;4.60;;;;;;;5.32;85.68;101306.69;5059393;28;20024;-74
2023/03/16 07:18:56;;;;;;;12.88;3.60;;;;;;;5.35;85.30;101301.22;5046593;28;20080;-74
2023/03/16 07:21:21;;;;;;;11.82;3.88;;;;;;;5.38;85.08;101293.06;5050936;28;20120;-74
2023/03/16 07:23:47;;;;;;;13.90;3.97;;;;;;;5.41;84.03;101300.06;5043283;28;20028;-74
2023/03/16 07:26:12;;;;;;;16.95;4.20;;;;;;;5.43;84.30;101295.53;5041425;28;20448;-74
2023/03/16 07:28:38;;;;;;;16.77;4.47;;;;;;;5.45;83.99;101296.34;5055401;28;20032;-74
2023/03/16 07:31:05;;;;;;;16.35;4.55;;;;;;;5.48;83.11;101296.19;5056051;28;20063;-74
2023/03/16 07:33:32;;;;;;;12.70;3.92;;;;;;;5.51;83.65;101303.19;5048092;28;20056;-74
2023/03/16 07:35:57;;;;;;;13.68;4.35;;;;;;;5.54;83.27;101297.72;5059861;28;20114;-74
2023/03/16 07:38:22;;;;;;;15.45;4.30;;;;;;;5.55;84.86;101303.00;5044136;28;20045;-73
2023/03/16 07:40:48;;;;;;;18.80;4.40;;;;;;;5.57;82.77;101306.44;5036634;28;20452;-74
2023/03/16 07:43:14;;;;;;;12.35;3.70;;;;;;;5.60;81.76;101300.13;5035125;28;20038;-74
2023/03/16 07:45:39;;;;;;;11.43;3.65;;;;;;;5.62;82.72;101305.38;5035163;28;20041;-74
2023/03/16 07:48:04;;;;;;;14.90;4.28;;;;;;;5.65;81.92;101300.78;5043215;28;20491;-74
2023/03/16 07:50:30;;;;;;;10.98;3.88;;;;;;;5.69;83.22;101298.84;5045522;28;20492;-74
2023/03/16 07:52:55;;;;;;;13.73;3.97;;;;;;;5.72;82.75;101304.03;5061434;28;20051;-74
2023/03/16 07:55:20;;;;;;;12.90;4.25;;;;;;;5.73;81.05;101305.75;5061718;28;20434;-74
2023/03/16 07:57:48;;;;;;;14.95;4.28;;;;;;;5.76;80.95;101300.28;5053995;28;20487;-74
2023/03/16 08:00:14;;;;;;;13.90;4.28;;;;;;;5.79;81.62;101308.13;5061577;28;20106;-74
2023/03/16 08:02:40;;;;;;;17.83;4.60;;;;;;;5.82;82.49;101310.66;5050454;28;20099;-74
2023/03/16 08:05:09;;;;;;;13.50;3.95;;;;;;;5.86;82.22;101301.59;5051383;28;20037;-74
2023/03/16 08:07:34;;;;;;;16.10;4.30;;;;;;;5.91;80.34;101310.22;5054606;28;20089;-74
2023/03/16 08:10:00;;;;;;;13.27;4.13;;;;;;;5.98;80.29;101304.66;5043656;28;20037;-73
2023/03/16 08:12:25;;;;;;;11.13;3.55;;;;;;;6.01;79.54;101294.69;5059722;28;20017;-74
2023/03/16 08:14:51;;;;;;;19.45;3.97;;;;;;;6.05;79.81;101303.44;5048897;28;20040;-74
2023/03/16 08:17:16;;;;;;;13.38;4.00;;;;;;;6.09;79.00;101302.34;5045925;28;20713;-74
2023/03/16 08:19:42;;;;;;;17.77;4.43;;;;;;;6.13;79.41;101309.25;5047879;28;20059;-74
2023/03/16 08:22:07;;;;;;;15.23;4.35;;;;;;;6.18;79.54;101309.94;5047909;28;20111;-74
2023/03/16 08:24:33;;;;;;;14.10;4.25;;;;;;;6.22;77.39;101300.84;5057321;28;20123;-74
2023/03/16 08:26:58;;;;;;;11.35;4.35;;;;;;;6.27;77.50;101309.47;5053906;28;20207;-74
2023/03/16 08:29:25;;;;;;;13.27;4.10;;;;;;;6.29;77.82;101306.72;5051720;28;20124;-74
2023/03/16 08:31:53;;;;;;;15.30;4.85;;;;;;;6.34;77.53;101306.50;5051693;28;20083;-74
2023/03/16 08:34:19;;;;;;;13.73;4.75;;;;;;;6.38;78.71;101305.41;5038694;28;20029;-74
2023/03/16 08:36:44;;;;;;;14.18;5.15;;;;;;;6.41;78.83;101302.59;5053628;28;20028;-74
2023/03/16 08:39:09;;;;;;;21.90;7.63;;;;;;;6.44;77.54;101299.78;5054434;28;20641;-74
2023/03/16 08:41:35;;;;;;;23.08;8.25;;;;;;;6.45;76.84;101305.03;5060698;28;20412;-74
2023/03/16 08:44:01;;;;;;;15.50;4.95;;;;;;;6.47;76.76;101302.28;5053735;28;20037;-74
2023/03/16 08:46:27;;;;;;;11.43;3.83;;;;;;;6.50;76.67;101286.16;5058578;28;20439;-73
2023/03/16 08:48:55;;;;;;;11.98;3.97;;;;;;;6.52;76.29;101302.94;5056930;28;20108;-74
2023/03/16 08:51:20;;;;;;;17.20;4.13;;;;;;;6.57;76.58;101300.03;5055478;28;20021;-74
2023/03/16 08:53:46;;;;;;;13.07;4.05;;;;;;;6.59;77.61;101301.72;5050846;28;20110;-74
2023/03/16 08:56:14;;;;;;;12.77;3.97;;;;;;;6.62;77.22;101295.34;5045996;28;20464;-74
2023/03/16 08:58:46;;;;;;;12.15;4.00;;;;;;;6.66;76.73;101291.56;5051096;28;20044;-74
2023/03/16 09:01:21;;;;;;;10.05;3.72;;;;;;;6.71;77.55;101283.34;5049978;28;20028;-74
2023/03/16 09:03:46;;;;;;;17.83;4.43;;;;;;;6.76;77.74;101286.66;5061020;28;20032;-74
2023/03/16 09:06:14;;;;;;;14.00;4.47;;;;;;;6.80;74.83;101277.53;5057903;28;20081;-74
2023/03/16 09:08:40;;;;;;;13.52;4.20;;;;;;;6.86;75.29;101269.19;5055713;28;20037;-74
2023/03/16 09:11:08;;;;;;;12.35;3.80;;;;;;;6.93;74.21;101277.78;5057547;28;20427;-74
2023/03/16 09:13:34;;;;;;;12.43;3.80;;;;;;;6.99;74.11;101278.31;5047004;28;20024;-74
2023/03/16 09:16:00;;;;;;;15.18;4.25;;;;;;;7.06;74.41;101280.66;5054727;28;20044;-74
2023/03/16 09:18:26;;;;;;;12.23;3.78;;;;;;;7.12;73.78;101273.22;5047753;28;20602;-74
2023/03/16 09:21:06;;;;;;;13.88;3.78;;;;;;;7.22;73.19;101270.94;5052999;28;20056;-74
2023/03/16 09:23:32;;;;;;;;;;;;;;;7.29;74.44;101277.69;5053058;28;20117;-74
2023/03/16 09:26:00;;;;;;;11.45;3.72;;;;;;;7.35;73.87;101280.03;5055106;28;19912;-74
2023/03/16 09:28:26;;;;;;;13.82;3.92;;;;;;;7.43;72.93;101273.41;5059827;28;20025;-74
2023/03/16 09:30:53;;;;;;;13.65;4.05;;;;;;;7.47;72.64;101277.66;5058169;28;20028;-74
2023/03/16 09:33:19;;;;;;;9.95;3.60;;;;;;;7.52;73.49;101275.59;5052075;28;20032;-74
2023/03/16 09:35:45;;;;;;;14.10;3.97;;;;;;;7.59;71.80;101274.31;5053827;28;20101;-74
2023/03/16 09:38:10;;;;;;;16.80;4.47;;;;;;;7.62;70.75;101265.25;5055670;28;20434;-74
2023/03/16 09:40:37;;;;;;;14.23;3.83;;;;;;;7.65;71.11;101271.28;5053792;28;20032;-74
2023/03/16 09:43:32;;;;;;;13.02;3.60;;;;;;;7.68;71.45;101262.25;5049049;28;20069;-74
2023/03/16 09:46:18;;;;;;;12.38;3.83;;;;;;;7.75;70.46;101270.81;5050833;28;20254;-74
2023/03/16 09:48:46;;;;;;;12.82;4.00;;;;;;;7.81;69.60;101267.78;5053661;28;20108;-74
2023/03/16 09:51:42;;;;;;;11.40;3.33;;;;;;;7.92;70.52;101272.53;5058075;28;20051;-74
2023/03/16 09:54:26;;;;;;;16.65;4.78;;;;;;;8.07;71.04;101260.09;5044289;28;20068;-74
2023/03/16 09:56:54;;;;;;;12.93;3.72;;;;;;;8.18;68.87;101268.41;5047355;28;20071;-74
2023/03/16 09:59:21;;;;;;;17.02;5.55;;;;;;;8.24;68.32;101260.03;5040667;28;20033;-74
2023/03/16 10:02:24;;;;;;;15.70;4.55;;;;;;;8.31;68.27;101249.84;5050933;28;20055;-74
2023/03/16 10:05:01;;;;;;;14.30;4.03;;;;;;;8.37;68.30;101246.78;5044606;28;20029;-74
2023/03/16 10:07:37;;;;;;;14.95;3.97;;;;;;;8.45;69.43;101246.38;5062985;28;20491;-74
2023/03/16 10:10:08;;;;;;;15.77;4.68;;;;;;;8.51;67.50;101235.31;5048553;28;20032;-74
2023/03/16 10:12:40;;;;;;;15.52;4.50;;;;;;;8.57;66.75;101238.50;5053200;28;20107;-74
2023/03/16 10:15:19;;;;;;;11.98;3.70;;;;;;;8.62;66.80;101235.53;5053555;28;20152;-74
2023/03/16 10:18:15;;;;;;;10.32;3.72;;;;;;;8.66;65.80;101245.13;5057069;28;20152;-74
2023/03/16 10:20:41;;;;;;;13.55;3.70;;;;;;;8.71;66.54;101224.28;5043269;28;20438;-74
2023/03/16 10:23:23;;;;;;;12.65;3.38;;;;;;;8.76;65.94;101224.00;5045956;28;20045;-74
2023/03/16 10:25:57;;;;;;;9.40;3.13;;;;;;;8.84;65.72;101239.63;5060021;28;20020;-74
2023/03/16 10:28:25;;;;;;;11.38;3.50;;;;;;;8.88;66.51;101227.78;5054512;28;20048;-75
2023/03/16 10:30:53;;;;;;;7.53;2.92;;;;;;;8.95;65.45;101226.44;5047147;28;20017;-75
2023/03/16 10:33:33;;;;;;;12.55;3.85;;;;;;;8.99;63.80;101225.31;5058207;28;20392;-75
2023/03/16 10:36:04;;;;;;;12.10;3.38;;;;;;;9.00;62.51;101228.84;5052485;28;20040;-74
2023/03/16 10:38:45;;;;;;;15.35;3.75;;;;;;;9.01;63.65;101217.19;5059491;28;20115;-74
2023/03/16 10:41:17;;;;;;;7.43;2.70;;;;;;;9.02;63.73;101226.94;5052884;28;20037;-74
2023/03/16 10:43:43;;;;;;;14.25;3.72;;;;;;;9.06;63.01;101213.25;5058604;28;20032;-74
2023/03/16 10:46:10;;;;;;;10.85;3.25;;;;;;;9.17;64.32;101209.06;5041982;28;20029;-74
2023/03/16 10:48:37;;;;;;;10.07;3.20;;;;;;;9.25;62.46;101215.69;5043093;28;20427;-74
2023/03/16 10:51:07;;;;;;;10.13;3.30;;;;;;;9.34;62.71;101206.19;5052218;28;20089;-74
2023/03/16 10:53:35;;;;;;;7.82;3.22;;;;;;;9.39;61.21;101198.72;5057230;28;20308;-75
2023/03/16 10:56:10;;;;;;;8.65;3.45;;;;;;;9.51;63.35;101207.81;5044297;28;20471;-74
2023/03/16 10:58:41;;;;;;;12.45;3.60;;;;;;;9.58;61.54;101202.94;5060788;28;20016;-74
2023/03/16 11:01:16;;;;;;;11.95;3.05;;;;;;;9.67;61.79;101199.66;5037358;28;20031;-74
2023/03/16 11:03:41;;;;;;;7.50;2.80;;;;;;;9.71;60.04;101198.50;5053324;28;20415;-74
2023/03/16 11:06:19;;;;;;;9.90;3.10;;;;;;;9.76;61.35;101192.81;5051585;28;20070;-74
2023/03/16 11:08:46;;;;;;;11.30;2.88;;;;;;;9.80;60.22;101189.00;5051806;28;20120;-74
2023/03/16 11:11:19;;;;;;;10.73;2.58;;;;;;;9.89;60.07;101190.22;5067649;28;20226;-74
2023/03/16 11:13:46;;;;;;;7.70;2.67;;;;;;;9.97;57.99;101190.56;5052262;28;20041;-74
2023/03/16 11:16:24;;;;;;;8.23;2.88;;;;;;;10.04;58.02;101178.44;5043489;28;20541;-74
2023/03/16 11:18:56;;;;;;;10.93;2.97;;;;;;;10.12;57.74;101173.44;5057967;28;20056;-74
2023/03/16 11:21:35;;;;;;;10.35;2.72;;;;;;;10.17;58.18;101166.91;5045775;28;20033;-74
2023/03/16 11:24:03;;;;;;;12.47;3.10;;;;;;;10.22;57.51;101172.81;5044488;28;20478;-75
2023/03/16 11:26:32;;;;;;;6.63;2.78;;;;;;;10.26;58.25;101164.50;5063375;28;20539;-75
2023/03/16 11:29:08;;;;;;;;;;;;;;;10.29;60.71;101172.34;5061303;28;20040;-75